createdAt,value
2022-11-21T00:39:32.205Z,100
2022-11-21T00:49:32.533Z,100
2022-11-21T01:09:34.026Z,100
2022-11-21T01:19:34.868Z,100
2022-11-21T01:29:35.569Z,98
2022-11-21T01:59:36.796Z,100
2022-11-21T03:39:41.997Z,100
2022-11-21T05:09:45.365Z,100
2022-11-21T05:19:46.330Z,100
2022-11-21T05:39:47.883Z,100
2022-11-21T06:39:50.865Z,100
2022-11-21T07:09:53.530Z,100
2022-11-21T07:29:54.332Z,100
2022-11-21T07:49:55.259Z,100
2022-11-21T07:59:56.006Z,100
2022-11-21T08:09:56.988Z,100
2022-11-21T08:19:57.716Z,100
2022-11-21T08:29:57.898Z,100
2022-11-21T08:39:58.198Z,100
2022-11-21T08:50:01.115Z,100
2022-11-21T08:59:59.441Z,100
2022-11-21T09:10:00.191Z,100
2022-11-21T09:20:00.449Z,94
2022-11-21T09:30:01.228Z,100
2022-11-21T09:40:01.682Z,100
2022-11-21T09:50:02.532Z,93
2022-11-21T10:00:03.499Z,100
2022-11-21T10:10:03.546Z,99
2022-11-21T10:20:03.777Z,97
2022-11-21T10:30:04.159Z,97
2022-11-21T10:40:04.450Z,100
2022-11-21T10:50:04.652Z,98
2022-11-21T11:00:05.238Z,100
2022-11-21T11:10:05.669Z,83
2022-11-21T11:20:06.016Z,100
2022-11-21T11:30:06.340Z,100
2022-11-21T11:40:07.116Z,80
2022-11-21T11:50:07.706Z,93
2022-11-21T12:00:07.985Z,71
2022-11-21T12:10:08.652Z,48
2022-11-21T12:20:09.491Z,63
2022-11-21T12:30:10.321Z,73
2022-11-21T12:40:10.907Z,59
2022-11-21T12:50:11.705Z,67
2022-11-21T13:00:12.505Z,73
2022-11-21T13:10:13.189Z,74
2022-11-21T13:30:13.457Z,100
2022-11-21T13:40:14.036Z,100
2022-11-21T13:50:14.853Z,95
2022-11-21T14:00:19.632Z,100
2022-11-21T14:10:16.413Z,33
2022-11-21T14:30:18.292Z,0
2022-11-21T15:00:43.733Z,0
2022-11-21T15:20:20.983Z,100
2022-11-21T15:30:21.643Z,88
2022-11-21T15:40:22.035Z,82
2022-11-21T16:00:23.402Z,67
2022-11-21T16:10:27.699Z,85
2022-11-21T16:20:24.969Z,83
2022-11-21T16:30:25.802Z,91
2022-11-21T16:40:26.275Z,80
2022-11-21T16:50:26.347Z,82
2022-11-21T17:00:26.596Z,82
2022-11-21T17:30:28.944Z,100
2022-11-21T17:40:29.496Z,72
2022-11-21T18:50:33.494Z,64
2022-11-21T19:00:33.889Z,62
2022-11-21T19:10:42.922Z,69
2022-11-21T19:20:35.621Z,27
2022-11-21T19:30:36.059Z,76
2022-11-21T19:40:36.654Z,61
2022-11-21T19:50:37.186Z,80
2022-11-21T20:00:37.351Z,54
2022-11-21T20:30:38.890Z,0
2022-11-21T20:40:39.702Z,0
2022-11-21T20:51:34.866Z,0
2022-11-21T21:00:40.667Z,0
2022-11-21T21:11:04.318Z,0
2022-11-21T21:30:42.680Z,0
2022-11-21T21:40:43.622Z,0
2022-11-21T21:50:44.461Z,0
2022-11-21T22:00:44.597Z,0
2022-11-21T22:10:44.959Z,0
2022-11-21T22:20:45.089Z,25
2022-11-21T22:30:45.514Z,56
2022-11-21T22:40:45.553Z,48
2022-11-21T22:50:45.767Z,44
2022-11-21T23:00:46.035Z,42
2022-11-21T23:10:46.514Z,28
2022-11-21T23:20:47.361Z,19
2022-11-21T23:30:48.377Z,10
2022-11-21T23:31:10.258Z,9
2022-11-21T23:40:54.381Z,0
2022-11-21T23:50:55.237Z,0
